CDT,Max TemperatureF,Mean TemperatureF,Min TemperatureF,Max Dew PointF,MeanDew PointF,Min DewpointF,Max Humidity, Mean Humidity, Min Humidity, Max Sea Level PressureIn, Mean Sea Level PressureIn, Min Sea Level PressureIn, Max VisibilityMiles, Mean VisibilityMiles, Min VisibilityMiles, Max Wind SpeedMPH, Mean Wind SpeedMPH, Max Gust SpeedMPH,PrecipitationIn, CloudCover, Events, WindDirDegrees
2013-3-1,24,22,19,23,18,16,100,83,69,30.35,30.28,30.19,10,10,7,16,11,17,0.00,8,Rain-Snow,1
2013-3-2,28,19,10,23,17,9,100,85,69,30.32,30.22,30.05,10,10,7,15,5,,0.00,4,,167
2013-3-3,35,28,21,28,24,19,100,85,65,30.05,29.89,29.74,10,8,4,24,14,31,0.00,4,Rain,133
2013-3-4,32,29,26,32,29,23,100,98,75,29.95,29.81,29.70,10,5,1,21,12,28,0.02,8,Snow,129
2013-3-5,28,24,21,27,22,18,100,86,74,30.33,30.11,29.93,10,9,1,30,17,40,0.00,8,Rain-Snow,319
2013-3-6,26,22,17,21,19,18,100,91,80,30.41,30.34,30.25,10,10,6,14,8,17,0.00,7,Snow,51
2013-3-7,37,28,19,30,24,19,100,90,65,30.28,30.20,30.12,10,8,5,23,15,30,0.00,3,,131
2013-3-8,44,34,23,39,31,23,100,92,70,30.20,30.10,29.92,7,5,2,20,11,26,0.21,2,Rain,122
2013-3-9,41,36,32,41,37,32,100,100,100,29.92,29.73,29.61,4,2,0,23,12,39,0.92,8,Fog-Rain-Snow,96
2013-3-10,32,28,23,32,26,19,100,97,86,29.92,29.88,29.78,10,2,0,36,27,45,0.00,8,Rain-Snow,355
2013-3-11,30,24,19,23,20,16,93,82,64,29.92,29.86,29.80,10,10,10,22,16,25,0.00,6,Snow,320
2013-3-12,30,26,21,28,22,16,100,83,69,30.26,30.06,29.91,10,8,0,29,17,36,0.00,6,Rain-Snow,308
2013-3-13,28,21,14,25,19,12,93,85,74,30.38,30.30,30.17,10,10,9,17,10,23,0.00,2,,226
2013-3-14,50,38,26,45,33,23,100,85,75,30.16,30.05,29.99,10,8,1,20,9,26,0.00,2,Rain,258
2013-3-15,41,37,33,39,37,34,100,99,93,29.99,29.84,29.75,9,4,0,21,9,22,0.00,6,,57
2013-3-16,33,26,19,34,23,14,100,87,74,30.21,30.08,29.86,10,9,2,22,15,28,0.00,7,,355
2013-3-17,33,24,15,32,20,10,100,83,73,30.21,29.96,29.65,10,10,2,33,15,40,0.00,6,Snow,110
2013-3-18,33,24,15,34,18,7,100,81,63,29.98,29.79,29.64,10,8,2,33,25,44,0.03,7,Rain-Snow,291
2013-3-19,30,20,10,21,10,3,80,70,62,30.30,30.13,29.96,10,10,9,24,14,32,0.00,3,Rain-Snow,319
2013-3-20,24,16,8,12,8,5,85,69,54,30.33,30.25,30.11,10,10,10,21,16,28,0.00,1,Rain-Snow,329
2013-3-21,30,19,8,19,12,3,86,72,55,30.11,30.02,29.94,10,10,10,13,6,15,0.00,0,,100
2013-3-22,32,24,15,25,19,14,100,78,60,30.04,30.01,29.99,10,10,10,13,6,13,0.00,4,,115
2013-3-23,33,30,26,27,24,19,100,82,65,30.14,30.09,30.03,10,10,6,17,6,18,0.00,7,,27
2013-3-24,30,26,23,27,22,18,100,86,69,30.10,30.04,29.97,10,7,1,22,15,28,0.00,8,Rain-Snow,342
2013-3-25,32,28,21,23,22,18,100,82,64,30.30,30.17,30.07,10,9,4,21,17,28,0.00,8,Rain-Snow,339
2013-3-26,35,24,12,25,18,10,100,77,52,30.32,30.28,30.22,10,10,10,9,6,15,0.00,1,,313
2013-3-27,44,34,23,32,27,23,100,79,49,30.27,30.24,30.20,10,10,9,16,9,21,0.00,1,,127
2013-3-28,51,40,30,39,34,28,100,84,50,30.25,30.22,30.18,10,9,5,16,10,21,0.00,4,,136
2013-3-29,59,46,32,45,38,32,100,77,51,30.21,30.13,30.00,10,9,5,21,9,26,0.00,2,,151
2013-3-30,60,46,33,48,42,34,100,78,45,30.01,29.93,29.89,10,9,2,36,14,44,0.00,3,,279
2013-3-31,41,32,24,36,28,18,100,80,52,30.16,29.98,29.91,10,7,0,23,12,30,0.00,4,Rain,322